createdAt,value
2019-02-27T00:00:36.131Z,11.77
2019-02-27T00:03:09.230Z,10.37
2019-02-27T00:05:41.733Z,6.77
2019-02-27T00:08:13.863Z,7.03
2019-02-27T00:10:45.316Z,7.40
2019-02-27T00:13:16.631Z,8.33
2019-02-27T00:15:48.076Z,7.60
2019-02-27T00:18:23.785Z,5.17
2019-02-27T00:20:54.834Z,7.03
2019-02-27T00:23:27.332Z,7.10
2019-02-27T00:25:58.853Z,5.60
2019-02-27T00:28:30.122Z,5.90
2019-02-27T00:31:04.223Z,9.20
2019-02-27T00:33:35.618Z,6.80
2019-02-27T00:36:06.961Z,6.47
2019-02-27T00:38:39.259Z,6.60
2019-02-27T00:41:12.811Z,5.90
2019-02-27T00:43:43.667Z,7.00
2019-02-27T00:46:14.964Z,5.47
2019-02-27T00:48:46.391Z,6.27
2019-02-27T00:51:18.789Z,5.97
2019-02-27T00:53:51.371Z,4.77
2019-02-27T00:56:22.791Z,5.07
2019-02-27T00:58:54.114Z,6.20
2019-02-27T01:01:25.496Z,7.63
2019-02-27T01:03:59.247Z,5.20
2019-02-27T01:06:29.869Z,5.70
2019-02-27T01:09:03.888Z,7.50
2019-02-27T01:11:37.493Z,5.97
2019-02-27T01:14:09.018Z,6.97
2019-02-27T01:16:40.480Z,5.03
2019-02-27T01:19:11.940Z,6.67
2019-02-27T01:21:43.252Z,5.50
2019-02-27T01:24:17.458Z,7.50
2019-02-27T01:26:49.149Z,7.40
2019-02-27T01:29:20.406Z,5.57
2019-02-27T01:31:51.918Z,8.10
2019-02-27T01:34:23.275Z,6.10
2019-02-27T01:36:54.865Z,4.77
2019-02-27T01:39:27.525Z,5.53
2019-02-27T01:41:59.019Z,5.13
2019-02-27T01:44:30.358Z,4.83
2019-02-27T01:47:02.881Z,5.43
2019-02-27T01:49:34.351Z,7.20
2019-02-27T01:52:05.917Z,6.67
2019-02-27T01:54:38.298Z,6.67
2019-02-27T01:57:09.677Z,5.47
2019-02-27T01:59:41.000Z,5.07
2019-02-27T02:02:12.470Z,5.77
2019-02-27T02:04:44.017Z,8.40
2019-02-27T02:07:15.319Z,6.70
2019-02-27T02:09:46.785Z,7.00
2019-02-27T02:12:24.856Z,8.53
2019-02-27T02:15:06.310Z,6.70
2019-02-27T02:18:26.313Z,8.10
2019-02-27T02:21:24.501Z,8.00
2019-02-27T02:24:28.254Z,7.80
2019-02-27T02:27:25.373Z,7.93
2019-02-27T02:30:29.169Z,7.27
2019-02-27T02:33:29.087Z,6.80
2019-02-27T02:36:42.013Z,6.90
2019-02-27T02:39:55.303Z,6.27
2019-02-27T02:43:06.334Z,8.07
2019-02-27T02:45:56.819Z,8.03
2019-02-27T02:49:06.446Z,6.43
2019-02-27T02:51:42.024Z,7.93
2019-02-27T02:54:58.774Z,6.20
2019-02-27T02:57:57.128Z,5.40
2019-02-27T03:01:01.445Z,6.43
2019-02-27T03:03:49.794Z,6.43
2019-02-27T03:06:47.960Z,6.30
2019-02-27T03:09:48.007Z,6.50
2019-02-27T03:12:52.913Z,6.37
2019-02-27T03:15:37.929Z,7.40
2019-02-27T03:18:29.252Z,9.50
2019-02-27T03:21:16.034Z,6.80
2019-02-27T03:24:18.558Z,7.10
2019-02-27T03:27:11.322Z,8.63
2019-02-27T03:30:05.571Z,6.50
2019-02-27T03:32:50.336Z,7.20
2019-02-27T03:35:35.231Z,5.77
2019-02-27T03:38:59.304Z,9.00
2019-02-27T03:41:59.394Z,6.67
2019-02-27T03:44:55.852Z,6.07
2019-02-27T03:47:33.579Z,7.13
2019-02-27T03:50:24.726Z,6.53
2019-02-27T03:53:24.710Z,4.63
2019-02-27T03:56:26.642Z,7.23
2019-02-27T03:59:08.141Z,7.03
2019-02-27T04:02:08.654Z,6.50
2019-02-27T04:04:44.612Z,5.83
2019-02-27T04:07:44.682Z,9.27
2019-02-27T04:10:16.055Z,8.30
2019-02-27T04:12:51.349Z,5.57
2019-02-27T04:15:20.526Z,5.63
2019-02-27T04:17:52.231Z,8.23
2019-02-27T04:20:23.330Z,6.33
2019-02-27T04:23:11.239Z,8.77
2019-02-27T04:25:39.055Z,7.93
2019-02-27T04:28:10.357Z,7.50
2019-02-27T04:30:41.699Z,8.57
2019-02-27T04:33:13.069Z,7.07
2019-02-27T04:35:45.381Z,9.83
2019-02-27T04:38:16.736Z,6.03
2019-02-27T04:40:48.025Z,8.27
2019-02-27T04:43:19.354Z,6.43
2019-02-27T04:45:50.574Z,8.30
2019-02-27T04:48:21.903Z,9.00
2019-02-27T04:50:53.273Z,10.50
2019-02-27T04:53:24.638Z,7.90
2019-02-27T04:55:56.064Z,8.37
2019-02-27T04:58:27.647Z,7.87
2019-02-27T05:01:18.418Z,8.70
2019-02-27T05:03:51.324Z,7.60
2019-02-27T05:06:22.656Z,7.30
2019-02-27T05:08:54.113Z,7.30
2019-02-27T05:11:26.975Z,7.80
2019-02-27T05:13:58.497Z,7.23
2019-02-27T05:16:29.813Z,6.87
2019-02-27T05:19:03.988Z,6.90
2019-02-27T05:21:34.181Z,5.47
2019-02-27T05:24:07.716Z,8.13
2019-02-27T05:26:39.368Z,7.93
2019-02-27T05:29:10.761Z,6.50
2019-02-27T05:31:42.965Z,6.30
2019-02-27T05:34:14.354Z,6.37
2019-02-27T05:36:45.754Z,7.30
2019-02-27T05:39:17.354Z,11.30
2019-02-27T05:41:53.429Z,5.63
2019-02-27T05:44:36.946Z,6.57
2019-02-27T05:47:13.702Z,8.73
2019-02-27T05:49:45.027Z,6.87
2019-02-27T05:52:16.391Z,8.53
2019-02-27T05:54:47.768Z,6.60
2019-02-27T05:57:21.034Z,7.40
2019-02-27T05:59:52.126Z,6.07
2019-02-27T06:02:23.391Z,5.90
2019-02-27T06:04:56.146Z,7.13
2019-02-27T06:07:28.489Z,7.17
2019-02-27T06:09:59.961Z,7.53
2019-02-27T06:12:31.283Z,6.97
2019-02-27T06:15:02.670Z,8.63
2019-02-27T06:17:43.107Z,6.53
2019-02-27T06:20:08.585Z,8.13
2019-02-27T06:22:40.055Z,7.53
2019-02-27T06:25:21.655Z,7.23
2019-02-27T06:27:49.154Z,8.27
2019-02-27T06:30:22.012Z,6.73
2019-02-27T06:32:53.278Z,8.73
2019-02-27T06:35:24.816Z,6.73
2019-02-27T06:37:56.275Z,8.17
2019-02-27T06:40:27.636Z,10.63
2019-02-27T06:42:59.015Z,6.63
2019-02-27T06:45:30.315Z,6.07
2019-02-27T06:48:01.598Z,9.13
2019-02-27T06:50:32.951Z,7.30
2019-02-27T06:53:04.431Z,7.03
2019-02-27T06:55:35.885Z,7.23
2019-02-27T06:58:07.252Z,9.13
2019-02-27T07:00:38.576Z,8.37
2019-02-27T07:03:09.849Z,10.03
2019-02-27T07:05:41.385Z,6.40
2019-02-27T07:08:12.767Z,11.27
2019-02-27T07:10:44.094Z,8.27
2019-02-27T07:13:15.567Z,8.83
2019-02-27T07:15:48.146Z,9.37
2019-02-27T07:18:20.384Z,14.93
2019-02-27T07:20:51.725Z,10.53
2019-02-27T07:23:45.751Z,9.50
2019-02-27T07:26:18.325Z,6.47
2019-02-27T07:28:49.753Z,9.47
2019-02-27T07:31:23.313Z,9.73
2019-02-27T07:33:54.190Z,8.70
2019-02-27T07:36:27.142Z,11.10
2019-02-27T07:38:58.505Z,12.90
2019-02-27T07:41:29.788Z,12.63
2019-02-27T07:44:01.060Z,11.23
2019-02-27T07:46:32.450Z,11.43
2019-02-27T07:49:03.859Z,11.80
2019-02-27T07:51:35.235Z,12.33
2019-02-27T07:54:06.569Z,11.13
2019-02-27T07:56:37.882Z,11.20
2019-02-27T07:59:09.352Z,13.67
2019-02-27T08:01:43.709Z,13.23
2019-02-27T08:04:13.711Z,12.03
2019-02-27T08:06:45.027Z,12.60
2019-02-27T08:09:16.370Z,11.20
2019-02-27T08:11:47.963Z,12.00
2019-02-27T08:14:19.256Z,11.03
2019-02-27T08:16:50.646Z,14.63
2019-02-27T08:19:22.080Z,15.67
2019-02-27T08:21:53.373Z,13.10
2019-02-27T08:24:24.968Z,14.60
2019-02-27T08:26:56.398Z,12.53
2019-02-27T08:29:27.727Z,13.43
2019-02-27T08:32:01.192Z,12.00
2019-02-27T08:34:32.221Z,10.77
2019-02-27T08:37:03.685Z,12.70
2019-02-27T08:39:36.709Z,13.83
2019-02-27T08:42:08.028Z,13.40
2019-02-27T08:44:39.325Z,14.23
2019-02-27T08:47:10.862Z,12.80
2019-02-27T08:49:42.201Z,13.43
2019-02-27T08:52:16.219Z,11.30
2019-02-27T08:54:46.777Z,13.37
2019-02-27T08:57:18.460Z,12.87
2019-02-27T08:59:49.905Z,12.27
2019-02-27T09:02:24.302Z,14.70
2019-02-27T09:04:55.572Z,14.83
2019-02-27T09:07:26.906Z,13.87
2019-02-27T09:09:58.167Z,13.17
2019-02-27T09:12:29.626Z,12.73
2019-02-27T09:15:00.909Z,14.73
2019-02-27T09:17:32.379Z,12.37
2019-02-27T09:20:04.015Z,12.67
2019-02-27T09:22:36.731Z,15.23
2019-02-27T09:25:11.505Z,15.07
2019-02-27T09:27:42.995Z,13.73
2019-02-27T09:30:30.208Z,16.50
2019-02-27T09:33:01.875Z,14.00
2019-02-27T09:35:38.338Z,16.37
2019-02-27T09:38:08.553Z,16.30
2019-02-27T09:40:39.729Z,15.73
2019-02-27T09:43:11.711Z,14.07
2019-02-27T09:45:46.518Z,12.40
2019-02-27T09:48:19.276Z,13.83
2019-02-27T09:50:50.499Z,15.87
2019-02-27T09:53:21.846Z,11.50
2019-02-27T09:55:54.388Z,15.43
2019-02-27T09:58:26.072Z,16.73
2019-02-27T10:01:13.810Z,14.10
2019-02-27T10:03:45.219Z,15.33
2019-02-27T10:06:16.596Z,16.07
2019-02-27T10:08:47.985Z,13.17
2019-02-27T10:11:21.616Z,15.50
2019-02-27T10:13:52.658Z,20.00
2019-02-27T10:16:24.054Z,15.03
2019-02-27T10:18:55.881Z,13.90
2019-02-27T10:21:27.458Z,14.85
2019-02-27T10:23:58.942Z,15.30
2019-02-27T10:26:30.360Z,15.38
2019-02-27T10:29:01.824Z,13.55
2019-02-27T10:31:33.407Z,13.53
2019-02-27T10:34:04.837Z,15.15
2019-02-27T10:36:39.231Z,15.00
2019-02-27T10:39:09.579Z,15.93
2019-02-27T10:41:41.638Z,20.55
2019-02-27T10:44:13.150Z,17.42
2019-02-27T10:46:44.593Z,18.40
2019-02-27T10:49:15.987Z,16.07
2019-02-27T10:51:47.428Z,16.55
2019-02-27T10:54:18.841Z,16.02
2019-02-27T10:56:50.117Z,18.52
2019-02-27T10:59:22.207Z,18.60
2019-02-27T11:01:54.560Z,16.73
2019-02-27T11:04:25.975Z,15.68
2019-02-27T11:06:58.493Z,16.95
2019-02-27T11:09:30.266Z,17.17
2019-02-27T11:12:01.881Z,19.17
2019-02-27T11:14:33.361Z,16.85
2019-02-27T11:17:04.829Z,17.37
2019-02-27T11:19:36.224Z,19.45
2019-02-27T11:22:07.675Z,16.87
2019-02-27T11:24:39.183Z,16.75
2019-02-27T11:27:10.605Z,19.27
2019-02-27T11:29:41.995Z,18.17
2019-02-27T11:32:13.356Z,20.62
2019-02-27T11:34:45.615Z,19.55
2019-02-27T11:37:18.043Z,20.05
2019-02-27T11:39:49.519Z,17.77
2019-02-27T11:42:21.102Z,17.73
2019-02-27T11:44:53.510Z,17.05
2019-02-27T11:47:24.908Z,21.77
2019-02-27T11:49:57.482Z,18.15
2019-02-27T11:52:29.010Z,21.52
2019-02-27T11:55:00.400Z,20.75
2019-02-27T11:57:31.780Z,17.67
2019-02-27T12:00:04.112Z,20.60
2019-02-27T12:02:37.969Z,24.65
2019-02-27T12:05:13.558Z,19.27
2019-02-27T12:07:45.084Z,23.42
2019-02-27T12:10:23.741Z,19.98
2019-02-27T12:12:59.508Z,20.00
2019-02-27T12:15:28.346Z,20.45
2019-02-27T12:18:01.300Z,22.58
2019-02-27T12:20:33.141Z,24.37
2019-02-27T12:23:07.503Z,19.85
2019-02-27T12:25:39.647Z,18.50
2019-02-27T12:28:11.261Z,22.65
2019-02-27T12:30:42.742Z,20.05
2019-02-27T12:33:14.194Z,21.95
2019-02-27T12:35:47.269Z,21.12
2019-02-27T12:38:18.733Z,19.25
2019-02-27T12:40:50.302Z,19.73
2019-02-27T12:43:21.804Z,19.82
2019-02-27T12:45:53.283Z,21.10
2019-02-27T12:48:24.804Z,19.00
2019-02-27T12:50:56.295Z,18.57
2019-02-27T12:53:27.756Z,18.10
2019-02-27T12:55:59.237Z,22.02
2019-02-27T12:58:30.585Z,19.37
2019-02-27T13:01:02.077Z,18.85
2019-02-27T13:03:33.466Z,17.30
2019-02-27T13:06:04.987Z,19.73
2019-02-27T13:08:36.286Z,15.60
2019-02-27T13:11:08.048Z,20.70
2019-02-27T13:13:40.042Z,19.62
2019-02-27T13:16:14.248Z,18.75
2019-02-27T13:18:46.459Z,17.92
2019-02-27T13:21:20.693Z,19.20
2019-02-27T13:23:51.142Z,18.45
2019-02-27T13:26:22.515Z,16.40
2019-02-27T13:28:53.787Z,18.85
2019-02-27T13:31:26.875Z,17.62
2019-02-27T13:33:58.398Z,16.85
2019-02-27T13:36:31.602Z,14.93
2019-02-27T13:39:03.018Z,15.83
2019-02-27T13:41:36.116Z,14.43
2019-02-27T13:44:08.306Z,13.83
2019-02-27T13:46:39.626Z,13.50
2019-02-27T13:49:13.617Z,16.35
2019-02-27T13:51:44.045Z,12.35
2019-02-27T13:54:15.410Z,13.05
2019-02-27T13:56:46.752Z,12.85
2019-02-27T13:59:19.560Z,12.40
2019-02-27T14:01:51.246Z,11.12
2019-02-27T14:04:22.782Z,15.75
2019-02-27T14:06:54.187Z,14.20
2019-02-27T14:09:25.592Z,15.93
2019-02-27T14:11:58.720Z,12.28
2019-02-27T14:14:30.278Z,13.93
2019-02-27T14:17:02.304Z,12.95
2019-02-27T14:19:33.710Z,14.47
2019-02-27T14:22:07.540Z,14.38
2019-02-27T14:24:38.360Z,14.47
2019-02-27T14:27:12.024Z,16.73
2019-02-27T14:29:43.995Z,16.73
2019-02-27T14:32:15.546Z,19.82
2019-02-27T14:34:47.000Z,15.08
2019-02-27T14:37:18.429Z,13.00
2019-02-27T14:39:50.589Z,11.95
2019-02-27T14:42:25.334Z,11.83
2019-02-27T14:44:56.854Z,14.18
2019-02-27T14:47:28.292Z,11.50
2019-02-27T14:50:00.336Z,10.93
2019-02-27T14:52:33.219Z,12.65
2019-02-27T14:55:06.253Z,16.48
2019-02-27T14:57:37.768Z,17.27
2019-02-27T15:00:25.879Z,13.32
2019-02-27T15:02:57.685Z,13.90
2019-02-27T15:05:29.194Z,12.80
2019-02-27T15:08:00.754Z,13.35
2019-02-27T15:10:32.255Z,13.00
2019-02-27T15:13:03.751Z,13.58
2019-02-27T15:15:35.183Z,13.05
2019-02-27T15:18:06.952Z,15.68
2019-02-27T15:20:41.063Z,14.35
2019-02-27T15:23:13.401Z,15.45
2019-02-27T15:25:44.964Z,15.72
2019-02-27T15:28:16.371Z,13.05
2019-02-27T15:30:47.824Z,15.28
2019-02-27T15:33:22.587Z,10.35
2019-02-27T15:35:55.633Z,15.63
2019-02-27T15:38:27.129Z,14.53
2019-02-27T15:41:02.337Z,15.55
2019-02-27T15:43:32.086Z,14.47
2019-02-27T15:46:04.688Z,14.05
2019-02-27T15:48:40.470Z,13.03
2019-02-27T15:51:09.536Z,13.22
2019-02-27T15:53:41.015Z,17.55
2019-02-27T15:56:12.450Z,13.53
2019-02-27T15:58:43.856Z,12.73
2019-02-27T16:01:15.199Z,17.17
2019-02-27T16:03:46.760Z,15.30
2019-02-27T16:06:19.161Z,12.65
2019-02-27T16:08:50.929Z,13.98
2019-02-27T16:11:22.466Z,13.28
2019-02-27T16:13:54.273Z,12.80
2019-02-27T16:16:25.599Z,11.97
2019-02-27T16:18:57.092Z,12.73
2019-02-27T16:21:28.552Z,15.88
2019-02-27T16:24:00.014Z,13.22
2019-02-27T16:26:31.383Z,16.05
2019-02-27T16:29:02.909Z,11.28
2019-02-27T16:31:34.424Z,10.63
2019-02-27T16:34:06.022Z,10.60
2019-02-27T16:36:37.443Z,11.18
2019-02-27T16:39:08.875Z,10.68
2019-02-27T16:41:41.978Z,11.90
2019-02-27T16:44:13.578Z,9.75
2019-02-27T16:46:45.040Z,10.72
2019-02-27T16:49:16.642Z,11.25
2019-02-27T16:51:47.923Z,9.53
2019-02-27T16:54:19.608Z,11.43
2019-02-27T16:56:51.071Z,10.90
2019-02-27T16:59:22.580Z,12.98
2019-02-27T17:01:54.024Z,10.60
2019-02-27T17:04:25.417Z,16.95
2019-02-27T17:06:56.787Z,14.30
2019-02-27T17:09:30.904Z,11.03
2019-02-27T17:12:04.307Z,12.85
2019-02-27T17:14:35.270Z,16.85
2019-02-27T17:17:06.944Z,18.73
2019-02-27T17:19:38.695Z,15.90
2019-02-27T17:22:11.278Z,22.70
2019-02-27T17:24:42.865Z,19.85
2019-02-27T17:27:16.394Z,17.62
2019-02-27T17:29:47.489Z,14.75
2019-02-27T17:32:21.632Z,18.80
2019-02-27T17:34:53.086Z,16.23
2019-02-27T17:37:24.461Z,12.60
2019-02-27T17:39:55.836Z,14.85
2019-02-27T17:42:27.219Z,14.43
2019-02-27T17:44:58.818Z,16.80
2019-02-27T17:47:31.808Z,14.90
2019-02-27T17:50:03.661Z,16.60
2019-02-27T17:52:36.341Z,16.77
2019-02-27T17:55:11.524Z,14.68
2019-02-27T17:57:42.952Z,16.45
2019-02-27T18:00:33.353Z,14.63
2019-02-27T18:03:05.830Z,13.20
2019-02-27T18:05:38.399Z,14.35
2019-02-27T18:08:09.859Z,16.85
2019-02-27T18:10:44.935Z,19.98
2019-02-27T18:13:16.465Z,16.45
2019-02-27T18:15:47.847Z,12.90
2019-02-27T18:18:19.731Z,15.00
2019-02-27T18:21:50.723Z,13.20
2019-02-27T18:24:34.293Z,12.13
2019-02-27T18:26:58.701Z,13.35
2019-02-27T18:29:34.526Z,12.60
2019-02-27T18:32:06.673Z,13.22
2019-02-27T18:34:42.497Z,14.90
2019-02-27T18:37:15.637Z,17.20
2019-02-27T18:39:47.277Z,19.87
2019-02-27T18:42:20.560Z,17.80
2019-02-27T18:44:52.626Z,15.23
2019-02-27T18:47:25.631Z,16.42
2019-02-27T18:49:57.369Z,19.92
2019-02-27T18:52:29.036Z,23.30
2019-02-27T18:55:00.597Z,20.52
2019-02-27T18:57:40.206Z,19.50
2019-02-27T19:00:15.429Z,13.60
2019-02-27T19:02:47.281Z,16.42
2019-02-27T19:05:18.878Z,16.57
2019-02-27T19:07:53.876Z,15.35
2019-02-27T19:10:24.318Z,13.55
2019-02-27T19:13:00.746Z,15.90
2019-02-27T19:15:29.313Z,13.35
2019-02-27T19:18:03.648Z,13.48
2019-02-27T19:20:46.823Z,14.68
2019-02-27T19:23:18.557Z,16.40
2019-02-27T19:25:50.194Z,19.32
2019-02-27T19:28:24.835Z,20.80
2019-02-27T19:30:56.253Z,24.87
2019-02-27T19:33:28.182Z,20.00
2019-02-27T19:36:07.209Z,21.07
2019-02-27T19:38:38.756Z,20.70
2019-02-27T19:41:10.352Z,22.27
2019-02-27T19:43:41.949Z,24.25
2019-02-27T19:46:15.400Z,21.90
2019-02-27T19:48:47.053Z,19.07
2019-02-27T19:51:20.183Z,18.67
2019-02-27T19:53:51.950Z,14.78
2019-02-27T19:56:23.592Z,15.35
2019-02-27T19:58:56.450Z,15.75
2019-02-27T20:01:28.389Z,15.53
2019-02-27T20:04:02.863Z,14.60
2019-02-27T20:06:34.869Z,15.75
2019-02-27T20:09:07.658Z,15.78
2019-02-27T20:11:43.735Z,14.13
2019-02-27T20:14:15.308Z,15.90
2019-02-27T20:16:46.948Z,14.90
2019-02-27T20:19:22.372Z,13.00
2019-02-27T20:21:52.113Z,11.55
2019-02-27T20:24:23.949Z,12.58
2019-02-27T20:26:55.859Z,13.45
2019-02-27T20:29:27.473Z,11.43
2019-02-27T20:32:01.721Z,10.25
2019-02-27T20:34:32.982Z,11.15
2019-02-27T20:37:10.801Z,7.37
2019-02-27T20:39:42.507Z,9.65
2019-02-27T20:42:14.448Z,8.10
2019-02-27T20:44:46.108Z,9.03
2019-02-27T20:47:17.637Z,9.95
2019-02-27T20:49:55.224Z,8.95
2019-02-27T20:52:26.864Z,8.98
2019-02-27T20:54:59.895Z,8.38
2019-02-27T20:57:31.629Z,8.23
2019-02-27T21:00:04.960Z,10.00
2019-02-27T21:02:36.891Z,7.33
2019-02-27T21:05:11.981Z,8.03
2019-02-27T21:07:43.666Z,7.50
2019-02-27T21:10:21.973Z,6.87
2019-02-27T21:12:54.484Z,6.37
2019-02-27T21:15:26.066Z,8.25
2019-02-27T21:17:58.494Z,6.70
2019-02-27T21:20:30.367Z,7.07
2019-02-27T21:23:01.746Z,8.73
2019-02-27T21:25:33.301Z,6.95
2019-02-27T21:28:07.664Z,6.47
2019-02-27T21:30:38.909Z,6.40
2019-02-27T21:33:11.136Z,9.47
2019-02-27T21:35:44.684Z,7.15
2019-02-27T21:38:16.783Z,8.97
2019-02-27T21:40:48.950Z,9.63
2019-02-27T21:43:25.224Z,7.47
2019-02-27T21:45:54.392Z,9.07
2019-02-27T21:48:26.744Z,6.93
2019-02-27T21:50:58.945Z,8.20
2019-02-27T21:53:30.364Z,6.60
2019-02-27T21:56:01.695Z,7.53
2019-02-27T21:58:33.070Z,7.57
2019-02-27T22:04:27.136Z,11.00
2019-02-27T22:06:59.519Z,9.93
2019-02-27T22:09:31.141Z,8.50
2019-02-27T22:12:02.638Z,10.95
2019-02-27T22:14:34.117Z,12.33
2019-02-27T22:17:05.962Z,11.17
2019-02-27T22:19:37.756Z,10.77
2019-02-27T22:22:09.235Z,10.97
2019-02-27T22:24:40.729Z,12.63
2019-02-27T22:27:12.657Z,10.90
2019-02-27T22:29:45.748Z,12.03
2019-02-27T22:32:17.220Z,10.60
2019-02-27T22:34:48.554Z,11.33
2019-02-27T22:37:20.162Z,10.80
2019-02-27T22:39:53.117Z,10.03
2019-02-27T22:42:25.509Z,8.50
2019-02-27T22:44:56.872Z,8.97
2019-02-27T22:47:28.155Z,8.00
2019-02-27T22:49:59.513Z,9.57
2019-02-27T22:52:31.100Z,8.00
2019-02-27T22:55:02.459Z,7.10
2019-02-27T22:57:33.828Z,8.60
2019-02-27T23:00:27.702Z,8.30
2019-02-27T23:03:01.994Z,8.37
2019-02-27T23:05:35.209Z,10.97
2019-02-27T23:08:06.631Z,7.10
2019-02-27T23:10:37.895Z,8.10
2019-02-27T23:13:12.656Z,11.13
2019-02-27T23:15:43.831Z,7.77
2019-02-27T23:18:15.318Z,9.77
2019-02-27T23:20:55.349Z,8.90
2019-02-27T23:23:25.740Z,9.70
2019-02-27T23:25:57.249Z,10.80
2019-02-27T23:28:28.782Z,13.10
2019-02-27T23:31:00.251Z,13.50
2019-02-27T23:33:35.844Z,12.13
2019-02-27T23:36:04.980Z,11.73
2019-02-27T23:38:36.351Z,12.17
2019-02-27T23:41:07.776Z,10.20
2019-02-27T23:43:39.208Z,10.00
2019-02-27T23:46:10.634Z,10.80
2019-02-27T23:48:44.781Z,10.67
2019-02-27T23:51:16.986Z,10.30
2019-02-27T23:53:48.514Z,11.97
2019-02-27T23:56:20.659Z,12.03
2019-02-27T23:58:52.161Z,14.33
